首页
METAR-TAF:

METAR-TAF

机场 :

托尔马切沃机场

新西伯利亚, 俄罗斯

纬度: 55-01N, 经度: 082-38E, 海拔: 111米

当前天气观测

该预报发布于42分钟前的01:30 UTC
风速6节,风向西转西南
温度 12°C
湿度 88%
气压 1009 hPa
能见度10公里或以上
多云层高于5900英尺, 积雨云.
小阵雨

METAR: UNNT 310130Z 24003MPS 9999 -SHRA BKN059CB 12/10 Q1009 R25/290160 R16/290160 NOSIG RMK QFE747/0996

时间: 09:12 (02:12 UTC)

预报

该预报发布于3小时和12分钟前的23:00 UTC
预报有效从31日的 00点(UTC)到 31日的 24点(UTC)
风速14节,风向西转西南,有时为29节阵风
能见度10公里或以上
多云层高于4000英尺, 积雨云.
小阵雨
短暂存在
从 31日的 02点(UTC)到 31日的 06点(UTC)
风速14节,风向西转西北,有时为27节阵风
成为
从 31日的 06点(UTC)到 31日的 09点(UTC)
风速14节,风向西转西北,有时为29节阵风
成为
从 31日的 12点(UTC)到 31日的 15点(UTC)
风速6节,风向西,有时为16节阵风
多云层高于5100英尺, 积雨云.

TAF: UNNT 302300Z 3100/3124 25007G15MPS 9999 -SHRA BKN040CB TEMPO 3102/3106 30007G14MPS BECMG 3106/3109 30007G15MPS NSW BECMG 3112/3115 26003G08MPS BKN051CB

超过4000个机场的气象观测和天气预报(METAR&TAF报告)。

可查询的气象台以黄色和红色小点在地图上表示。

将鼠标移到小点上方,可查看气象台名称。

然后点击查看天气观测和预报。

如需切换地图:点击带黑十字的绿色按钮放大地图;点击带横线的绿色按钮缩小地图;或者点击绿色箭头查看邻近地区的地图。


METAR-TAF: